Strona główna
METAR-TAF:

METAR-TAF

Lotnisko :

Jakuck, Rosja

Port lotniczy Jakuck

Szerokość geograficzna: 62-01N, Długość geograficzna: 129-43E, wysokość: 103 m

Aktualna obserwacja pogody

Raport powstał 47 minut temu, godzina 05:00 UTC
Wiatr 4 kt od północno-północny wschód
Temperatura -40°C
Wilgotność 58%
Ciśnienie 1018 hPa
Widzialność: 1100 m
zamglenie

METAR: UEEE 180500Z 03002MPS 1300 1100SW R23L/2000U BR NSC M40/M45 Q1018 R23L/490150 NOSIG RMK QFE754

czas: 14:47 (05:47 UTC)

Prognoza

Raport powstał 47 minut temu, godzina 05:00 UTC
Prognoza ważna od 18 godzina 06 UTC do 19 godzina 12 UTC
Wiatr 2 kt z kierunków zmiennych
Widzialność: 0700 m
mgła
Przejściowo
od 18 godzina 06 UTC do 18 godzina 17 UTC
Widzialność: 0300 m
na wysokości 300 ft
mgła

TAF: UEEE 180500Z 1806/1912 VRB01MPS 0700 FG NSC TXM38/1807Z TNM43/1814Z TEMPO 1806/1817 0300 FG VV003

Obserwacja i prognoza pogody dla ponad 4000 lotnisk (raport METAR i TAF).

Dostępne stacje oznaczono żółtymi i czerwonymi punktami na mapie.

Najedź kursorem aby zobaczyć nazwę stacji.

Kliknij aby zobaczyć obserwacje i prognozy pogody.

Aby zmienić mapę: kliknij na zielony przycisk z czarnym krzyżykiem, aby powiększyć; na zielony przycisk z myślnikiem, aby pomniejszyć; na zielone strzałki, aby przejść do map sąsiednich.


METAR-TAF: